Time;durP1;ratioP1;P1;durP2;ratioP2;P2;SDS_P1;SDS_P2;PMS_P1;PMS_P2;Temp;Humidity;BMP_temperature;BMP_pressure;BME280_temperature;BME280_humidity;BME280_pressure;Samples;Min_cycle;Max_cycle;Signal;HPM_P1;HPM_P2
2022/12/04 00:08:35;;;;;;;38.80;28.92;;;8.60;76.10;;;;;;20919954;28;20053;-61
2022/12/04 00:18:37;;;;;;;39.28;27.08;;;8.40;76.20;;;;;;20919652;28;20125;-61
2022/12/04 00:28:40;;;;;;;35.58;26.50;;;8.10;76.70;;;;;;20918402;28;20061;-59
2022/12/04 00:38:43;;;;;;;35.88;26.15;;;8.00;77.00;;;;;;20917359;28;20052;-61
2022/12/04 00:48:46;;;;;;;33.50;23.67;;;7.80;76.70;;;;;;20917227;28;20062;-60
2022/12/04 00:58:50;;;;;;;37.90;27.88;;;7.80;75.70;;;;;;20918188;28;20397;-58
2022/12/04 01:08:54;;;;;;;39.30;26.25;;;7.70;76.60;;;;;;20924785;28;20136;-59
2022/12/04 01:18:55;;;;;;;30.70;23.30;;;7.70;76.10;;;;;;20915796;28;20508;-60
2022/12/04 01:28:57;;;;;;;35.92;25.00;;;7.70;75.50;;;;;;20896554;28;20052;-62
2022/12/04 01:38:59;;;;;;;33.63;23.17;;;7.50;75.50;;;;;;20913235;28;20060;-59
2022/12/04 01:49:03;;;;;;;32.15;22.73;;;7.50;75.70;;;;;;20912711;28;20049;-60
2022/12/04 01:59:10;;;;;;;32.83;25.75;;;7.40;75.80;;;;;;20912730;28;20056;-59
2022/12/04 02:09:12;;;;;;;38.67;25.73;;;7.30;75.60;;;;;;20911939;28;20137;-59
2022/12/04 02:19:33;;;;;;;38.03;24.25;;;7.50;75.00;;;;;;20912000;28;20049;-61
2022/12/04 02:29:56;;;;;;;27.83;20.85;;;7.50;75.30;;;;;;20911355;28;20052;-63
2022/12/04 02:40:32;;;;;;;28.70;20.48;;;7.70;73.60;;;;;;20910654;28;20080;-59
2022/12/04 02:50:40;;;;;;;28.70;19.90;;;7.80;72.10;;;;;;20662969;28;20054;-60
2022/12/04 03:00:47;;;;;;;30.50;18.65;;;7.80;71.00;;;;;;20671367;28;20069;-61
2022/12/04 03:10:59;;;;;;;28.08;18.23;;;7.80;71.10;;;;;;20670391;28;20050;-58
2022/12/04 03:21:09;;;;;;;33.45;23.17;;;7.70;71.30;;;;;;20764969;28;20049;-59
2022/12/04 03:31:17;;;;;;;31.20;20.98;;;7.40;73.00;;;;;;20922970;28;20139;-60
2022/12/04 03:41:39;;;;;;;26.98;20.15;;;7.20;73.00;;;;;;20921918;28;20053;-61
2022/12/04 03:51:48;;;;;;;26.80;18.85;;;7.10;72.80;;;;;;20922141;28;20481;-59
2022/12/04 04:01:54;;;;;;;25.27;18.38;;;6.90;72.30;;;;;;20920245;28;20052;-59
2022/12/04 04:12:04;;;;;;;23.90;18.10;;;6.70;72.60;;;;;;20919430;28;20053;-59
2022/12/04 04:32:45;;;;;;;28.40;18.92;;;6.50;71.60;;;;;;20916837;28;20118;-59
2022/12/04 04:43:01;;;;;;;24.70;16.45;;;6.30;72.00;;;;;;20917419;28;20485;-59
2022/12/04 04:53:25;;;;;;;26.30;17.33;;;6.20;72.50;;;;;;20916973;28;20059;-61
2022/12/04 05:03:29;;;;;;;25.40;16.70;;;6.20;72.90;;;;;;20916176;28;20087;-60
2022/12/04 05:13:32;;;;;;;22.95;15.25;;;6.30;72.20;;;;;;20914888;28;20048;-59
2022/12/04 05:23:35;;;;;;;20.35;14.88;;;6.20;71.50;;;;;;20914669;28;20064;-61
2022/12/04 05:33:39;;;;;;;20.23;13.93;;;6.10;71.60;;;;;;20913729;28;20063;-60
2022/12/04 05:43:42;;;;;;;22.42;14.25;;;6.10;70.90;;;;;;20913590;28;20049;-60
2022/12/04 05:53:45;;;;;;;22.73;14.23;;;6.00;71.20;;;;;;20913245;28;20167;-60
2022/12/04 06:03:48;;;;;;;19.40;13.55;;;6.00;71.40;;;;;;20912409;28;20179;-60
2022/12/04 06:13:50;;;;;;;16.88;12.38;;;5.90;71.80;;;;;;20912975;28;20045;-59
2022/12/04 06:23:53;;;;;;;19.10;12.45;;;6.00;71.40;;;;;;20917118;28;20390;-60
2022/12/04 06:33:56;;;;;;;19.15;12.57;;;6.00;71.10;;;;;;20927623;28;20088;-58
2022/12/04 06:43:58;;;;;;;17.25;12.18;;;6.10;70.70;;;;;;20928151;28;20045;-60
2022/12/04 06:54:01;;;;;;;15.70;12.60;;;6.00;71.00;;;;;;20926486;28;20131;-60
2022/12/04 07:04:03;;;;;;;16.50;12.93;;;6.10;71.00;;;;;;20926058;28;20413;-64
2022/12/04 07:14:05;;;;;;;15.68;11.77;;;6.00;71.40;;;;;;20924814;28;20053;-59
2022/12/04 07:24:08;;;;;;;19.73;13.15;;;6.10;71.30;;;;;;20924509;28;20041;-59
2022/12/04 07:34:10;;;;;;;16.77;11.80;;;6.20;70.50;;;;;;20922157;28;20049;-59
2022/12/04 07:44:12;;;;;;;18.98;12.18;;;6.10;70.90;;;;;;20923411;28;20045;-61
2022/12/04 07:54:13;;;;;;;17.70;11.57;;;6.10;70.70;;;;;;20921994;28;20053;-58
2022/12/04 08:04:15;;;;;;;21.20;12.38;;;6.20;70.30;;;;;;20922147;28;20053;-61
2022/12/04 08:14:20;;;;;;;20.60;12.27;;;6.20;70.10;;;;;;20919846;28;20057;-60
2022/12/04 08:24:22;;;;;;;20.40;12.88;;;6.20;70.60;;;;;;20919035;28;20037;-59
2022/12/04 08:34:23;;;;;;;17.10;12.10;;;6.30;69.90;;;;;;20917928;28;20164;-61
2022/12/04 08:44:26;;;;;;;19.83;12.40;;;6.40;71.30;;;;;;20918085;28;20053;-64
2022/12/04 08:54:28;;;;;;;23.38;13.15;;;6.50;71.50;;;;;;20916516;28;20052;-59
2022/12/04 09:04:30;;;;;;;15.52;9.55;;;6.70;71.20;;;;;;20917195;28;20477;-60
2022/12/04 09:14:32;;;;;;;13.20;9.00;;;6.90;69.70;;;;;;20915150;28;20163;-60
2022/12/04 09:24:35;;;;;;;15.88;11.38;;;7.20;67.90;;;;;;20914585;28;20076;-61
2022/12/04 09:34:37;;;;;;;15.90;10.88;;;7.20;69.10;;;;;;20914176;28;20096;-63
2022/12/04 09:45:00;;;;;;;19.33;10.88;;;7.30;69.20;;;;;;20913009;28;20049;-60
2022/12/04 09:55:13;;;;;;;17.27;10.63;;;7.30;69.70;;;;;;20913420;28;20056;-60
2022/12/04 10:05:18;;;;;;;19.13;11.88;;;7.50;69.10;;;;;;20911768;28;20080;-62
2022/12/04 10:15:59;;;;;;;19.77;13.05;;;7.50;70.20;;;;;;20913174;28;20052;-60
2022/12/04 10:26:04;;;;;;;19.40;12.55;;;7.60;71.50;;;;;;20911561;28;20092;-61
2022/12/04 10:36:15;;;;;;;20.20;13.87;;;7.70;72.60;;;;;;20910818;28;20143;-61
2022/12/04 10:46:26;;;;;;;22.23;14.15;;;7.80;73.20;;;;;;20911402;28;20049;-63
2022/12/04 10:56:29;;;;;;;22.08;14.45;;;7.90;73.10;;;;;;20908612;28;20107;-61
2022/12/04 11:06:32;;;;;;;30.42;15.15;;;7.90;74.20;;;;;;20908831;28;20041;-61
2022/12/04 11:16:39;;;;;;;27.98;16.33;;;8.00;74.60;;;;;;20921637;28;20052;-62
2022/12/04 11:26:42;;;;;;;27.77;15.52;;;8.20;74.30;;;;;;20923028;28;20056;-61
2022/12/04 11:36:52;;;;;;;26.50;15.77;;;8.10;74.10;;;;;;20921850;28;20079;-61
2022/12/04 11:46:58;;;;;;;24.60;13.50;;;8.20;74.70;;;;;;20921724;28;20114;-61
2022/12/04 11:57:13;;;;;;;29.58;17.25;;;8.30;74.40;;;;;;20921474;28;20045;-61
2022/12/04 12:07:49;;;;;;;32.40;16.52;;;8.20;75.30;;;;;;20920683;28;20143;-62
2022/12/04 12:18:16;;;;;;;36.42;19.10;;;8.40;74.90;;;;;;20920634;28;20049;-62
2022/12/04 12:28:50;;;;;;;32.80;19.00;;;8.60;75.20;;;;;;20918388;28;20049;-62
2022/12/04 12:39:00;;;;;;;32.75;17.77;;;8.80;74.70;;;;;;20918129;28;20052;-65
2022/12/04 12:49:08;;;;;;;30.23;17.45;;;8.80;75.00;;;;;;20901412;28;20049;-66
2022/12/04 12:59:17;;;;;;;31.55;17.42;;;9.00;74.70;;;;;;20918236;28;20148;-63
2022/12/04 13:09:31;;;;;;;33.80;18.73;;;9.20;74.70;;;;;;20916670;28;20526;-66
2022/12/04 13:19:46;;;;;;;31.25;18.38;;;9.20;74.80;;;;;;20897789;28;20503;-65
2022/12/04 13:30:14;;;;;;;34.63;19.73;;;9.20;75.50;;;;;;20897546;28;20085;-67
2022/12/04 13:40:30;;;;;;;30.27;19.15;;;9.40;75.70;;;;;;20916393;28;20057;-61
2022/12/04 13:50:35;;;;;;;35.57;20.20;;;9.50;75.60;;;;;;20915074;28;20190;-59
2022/12/04 14:00:42;;;;;;;33.13;20.10;;;9.50;75.30;;;;;;20913127;28;20064;-65
2022/12/04 14:10:57;;;;;;;35.05;20.67;;;9.50;75.90;;;;;;20918259;28;20079;-65
2022/12/04 14:21:03;;;;;;;34.80;20.35;;;9.70;76.70;;;;;;20929337;28;20083;-65
2022/12/04 14:31:20;;;;;;;31.40;20.35;;;9.80;75.50;;;;;;20912390;28;20409;-64
2022/12/04 14:41:26;;;;;;;32.40;20.60;;;9.80;75.60;;;;;;20912456;28;20057;-61
2022/12/04 14:51:36;;;;;;;36.20;21.92;;;9.80;75.60;;;;;;20925390;28;20087;-65
2022/12/04 15:01:40;;;;;;;35.78;23.13;;;9.90;76.50;;;;;;20926914;28;20540;-64
2022/12/04 15:22:26;;;;;;;33.97;19.67;;;10.00;76.60;;;;;;20924555;28;20049;-63
2022/12/04 15:32:29;;;;;;;33.00;19.90;;;10.00;76.80;;;;;;20924485;28;20136;-65
2022/12/04 15:42:32;;;;;;;29.23;16.77;;;10.00;76.70;;;;;;20922469;28;20103;-59
2022/12/04 15:52:35;;;;;;;31.73;20.05;;;10.10;76.10;;;;;;20922099;28;20137;-60
2022/12/04 16:02:42;;;;;;;26.13;17.30;;;10.20;76.30;;;;;;20920830;28;20123;-61
2022/12/04 16:12:54;;;;;;;30.00;18.73;;;10.10;76.00;;;;;;20921017;28;20478;-61
2022/12/04 16:22:56;;;;;;;31.02;18.77;;;10.10;76.50;;;;;;20920284;28;20433;-59
2022/12/04 16:32:57;;;;;;;28.38;16.75;;;10.10;76.20;;;;;;20917146;28;20064;-61
2022/12/04 16:42:59;;;;;;;27.77;18.25;;;10.00;76.70;;;;;;20916501;28;20140;-61
2022/12/04 16:53:01;;;;;;;27.90;18.45;;;10.00;76.90;;;;;;20916993;28;20048;-65
2022/12/04 17:03:04;;;;;;;28.42;17.95;;;10.00;76.80;;;;;;20915082;28;20055;-63
2022/12/04 17:13:06;;;;;;;24.98;17.08;;;9.90;77.00;;;;;;20913814;28;20056;-66
2022/12/04 17:23:10;;;;;;;27.65;17.73;;;9.90;77.30;;;;;;20895914;28;20045;-63
2022/12/04 17:33:12;;;;;;;28.77;18.90;;;9.70;77.50;;;;;;20913253;28;20067;-60
2022/12/04 17:43:13;;;;;;;31.13;21.13;;;9.60;78.00;;;;;;20913020;28;20154;-66
2022/12/04 17:53:15;;;;;;;38.80;24.50;;;9.70;78.10;;;;;;20913172;28;20136;-59
2022/12/04 18:03:17;;;;;;;37.42;24.42;;;9.70;78.20;;;;;;20895662;28;20055;-58
2022/12/04 18:13:19;;;;;;;33.05;22.50;;;9.50;78.60;;;;;;20911839;28;20487;-60
2022/12/04 18:23:21;;;;;;;35.38;23.13;;;9.50;78.70;;;;;;20921457;28;20148;-61
2022/12/04 18:33:23;;;;;;;35.33;23.15;;;9.40;79.30;;;;;;20926743;28;20061;-63
2022/12/04 18:43:25;;;;;;;39.60;24.08;;;9.50;79.40;;;;;;20926705;28;20136;-62
2022/12/04 18:53:26;;;;;;;40.97;26.35;;;9.30;79.20;;;;;;20925506;28;20060;-60
2022/12/04 19:03:28;;;;;;;39.33;25.60;;;9.20;79.50;;;;;;20926291;28;20179;-60
2022/12/04 19:13:31;;;;;;;47.58;30.05;;;9.20;79.70;;;;;;20925734;28;20489;-66
2022/12/04 19:23:32;;;;;;;39.13;26.40;;;9.10;79.80;;;;;;20923498;28;20053;-61
2022/12/04 19:33:36;;;;;;;37.83;26.52;;;9.10;80.00;;;;;;20921062;28;20053;-60
2022/12/04 19:43:40;;;;;;;42.65;28.10;;;9.20;79.80;;;;;;20921599;28;20052;-63
2022/12/04 19:53:41;;;;;;;39.92;26.20;;;9.20;79.70;;;;;;20921003;28;20056;-62
2022/12/04 20:03:46;;;;;;;43.60;28.23;;;9.20;79.60;;;;;;20921684;28;20481;-60
2022/12/04 20:13:48;;;;;;;41.50;27.60;;;9.20;79.60;;;;;;20921052;28;20060;-58
2022/12/04 20:23:52;;;;;;;42.33;27.45;;;9.10;79.60;;;;;;20919061;28;20056;-61
2022/12/04 20:33:55;;;;;;;42.00;28.50;;;9.10;79.90;;;;;;20918147;28;20064;-63
2022/12/04 20:44:03;;;;;;;45.45;29.42;;;9.10;79.70;;;;;;20917684;28;20357;-59
2022/12/04 20:54:05;;;;;;;50.20;31.85;;;9.10;80.00;;;;;;20918233;28;20477;-61
2022/12/04 21:04:07;;;;;;;50.78;32.15;;;8.90;80.40;;;;;;20917963;28;20053;-61
2022/12/04 21:24:38;;;;;;;49.70;32.60;;;8.90;80.50;;;;;;20915663;28;20082;-60
2022/12/04 21:34:39;;;;;;;48.08;31.00;;;9.00;80.20;;;;;;20914415;28;20076;-63
2022/12/04 21:44:40;;;;;;;48.08;29.88;;;9.00;80.10;;;;;;20914979;28;20401;-61
2022/12/04 21:54:42;;;;;;;48.15;28.55;;;9.00;79.90;;;;;;20913793;28;20473;-59
2022/12/04 22:04:43;;;;;;;47.05;30.65;;;9.00;79.60;;;;;;20913499;28;20477;-62
2022/12/04 22:14:46;;;;;;;47.00;30.73;;;9.00;79.40;;;;;;20913109;28;20098;-63
2022/12/04 22:24:51;;;;;;;47.03;31.02;;;9.00;79.30;;;;;;20912570;28;20133;-61
2022/12/04 22:34:55;;;;;;;46.78;31.65;;;9.00;79.50;;;;;;20911850;28;20060;-62
2022/12/04 22:45:00;;;;;;;52.20;33.00;;;9.10;79.10;;;;;;20911619;28;20049;-61
2022/12/04 22:55:05;;;;;;;52.40;33.25;;;9.00;79.20;;;;;;20910652;28;20320;-63
2022/12/04 23:05:09;;;;;;;51.53;31.85;;;9.00;79.10;;;;;;20913927;28;20041;-60
2022/12/04 23:15:13;;;;;;;50.13;31.20;;;9.10;79.00;;;;;;20925690;28;20403;-61
2022/12/04 23:25:18;;;;;;;;;;;9.10;78.80;;;;;;20925682;28;20520;-61
2022/12/04 23:35:22;;;;;;;56.90;34.75;;;9.00;78.40;;;;;;20924974;28;20008;-60
2022/12/04 23:45:24;;;;;;;51.55;32.03;;;9.00;78.30;;;;;;20925546;28;20456;-61
2022/12/04 23:55:26;;;;;;;50.75;31.50;;;9.00;78.10;;;;;;20923199;28;20325;-61
